sensor_id;sensor_type;location;lat;lon;timestamp;temperature;humidity
17348;DHT22;8791;50.876;4.342;2024-01-15T00:00:58;2.40;99.90
17348;DHT22;8791;50.876;4.342;2024-01-15T00:03:25;2.50;99.90
17348;DHT22;8791;50.876;4.342;2024-01-15T00:05:52;2.50;99.90
17348;DHT22;8791;50.876;4.342;2024-01-15T00:08:19;2.70;99.90
17348;DHT22;8791;50.876;4.342;2024-01-15T00:10:47;2.60;99.90
17348;DHT22;8791;50.876;4.342;2024-01-15T00:13:14;2.50;99.90
17348;DHT22;8791;50.876;4.342;2024-01-15T00:15:41;2.50;99.90
17348;DHT22;8791;50.876;4.342;2024-01-15T00:18:09;2.50;99.90
17348;DHT22;8791;50.876;4.342;2024-01-15T00:20:36;2.40;99.90
17348;DHT22;8791;50.876;4.342;2024-01-15T00:23:03;2.60;99.90
17348;DHT22;8791;50.876;4.342;2024-01-15T00:25:29;2.70;99.90
17348;DHT22;8791;50.876;4.342;2024-01-15T00:27:58;2.70;99.90
17348;DHT22;8791;50.876;4.342;2024-01-15T00:30:24;2.80;99.90
17348;DHT22;8791;50.876;4.342;2024-01-15T00:32:52;2.70;99.90
17348;DHT22;8791;50.876;4.342;2024-01-15T00:35:19;2.80;99.90
17348;DHT22;8791;50.876;4.342;2024-01-15T00:37:45;2.80;99.90
17348;DHT22;8791;50.876;4.342;2024-01-15T00:40:13;2.90;99.90
17348;DHT22;8791;50.876;4.342;2024-01-15T00:42:40;3.10;99.90
17348;DHT22;8791;50.876;4.342;2024-01-15T00:45:09;3.10;99.90
17348;DHT22;8791;50.876;4.342;2024-01-15T00:47:36;3.20;99.90
17348;DHT22;8791;50.876;4.342;2024-01-15T00:50:03;3.30;99.90
17348;DHT22;8791;50.876;4.342;2024-01-15T00:52:30;3.30;99.90
17348;DHT22;8791;50.876;4.342;2024-01-15T00:54:56;3.40;99.90
17348;DHT22;8791;50.876;4.342;2024-01-15T00:57:23;3.60;99.90
17348;DHT22;8791;50.876;4.342;2024-01-15T00:59:50;3.60;99.90
17348;DHT22;8791;50.876;4.342;2024-01-15T01:02:18;3.50;99.90
17348;DHT22;8791;50.876;4.342;2024-01-15T01:04:45;3.60;99.90
17348;DHT22;8791;50.876;4.342;2024-01-15T01:07:11;3.50;99.90
17348;DHT22;8791;50.876;4.342;2024-01-15T01:09:38;3.50;99.90
17348;DHT22;8791;50.876;4.342;2024-01-15T01:12:06;3.60;99.90
17348;DHT22;8791;50.876;4.342;2024-01-15T01:14:33;3.70;99.90
17348;DHT22;8791;50.876;4.342;2024-01-15T01:16:59;3.80;99.90
17348;DHT22;8791;50.876;4.342;2024-01-15T01:19:28;3.60;99.90
17348;DHT22;8791;50.876;4.342;2024-01-15T01:21:56;3.60;99.90
17348;DHT22;8791;50.876;4.342;2024-01-15T01:24:22;3.50;99.90
17348;DHT22;8791;50.876;4.342;2024-01-15T01:26:49;3.60;99.90
17348;DHT22;8791;50.876;4.342;2024-01-15T01:29:16;3.50;99.90
17348;DHT22;8791;50.876;4.342;2024-01-15T01:31:43;3.50;99.90
17348;DHT22;8791;50.876;4.342;2024-01-15T01:34:10;3.60;99.90
17348;DHT22;8791;50.876;4.342;2024-01-15T01:36:39;3.50;99.90
17348;DHT22;8791;50.876;4.342;2024-01-15T01:39:06;3.60;99.90
17348;DHT22;8791;50.876;4.342;2024-01-15T01:41:33;3.60;99.90
17348;DHT22;8791;50.876;4.342;2024-01-15T01:44:00;3.60;99.90
17348;DHT22;8791;50.876;4.342;2024-01-15T01:46:27;3.60;99.90
17348;DHT22;8791;50.876;4.342;2024-01-15T01:48:55;3.50;99.90
17348;DHT22;8791;50.876;4.342;2024-01-15T01:51:23;3.50;99.90
17348;DHT22;8791;50.876;4.342;2024-01-15T01:53:52;3.40;99.90
17348;DHT22;8791;50.876;4.342;2024-01-15T01:56:19;3.20;99.90
17348;DHT22;8791;50.876;4.342;2024-01-15T01:58:47;3.10;99.90
17348;DHT22;8791;50.876;4.342;2024-01-15T02:01:15;3.10;99.90
17348;DHT22;8791;50.876;4.342;2024-01-15T02:03:43;3.20;99.90
17348;DHT22;8791;50.876;4.342;2024-01-15T02:06:10;3.20;99.90
17348;DHT22;8791;50.876;4.342;2024-01-15T02:08:37;3.30;99.90
17348;DHT22;8791;50.876;4.342;2024-01-15T02:11:05;3.40;99.90
17348;DHT22;8791;50.876;4.342;2024-01-15T02:13:32;3.50;99.90
17348;DHT22;8791;50.876;4.342;2024-01-15T02:15:59;3.50;99.90
17348;DHT22;8791;50.876;4.342;2024-01-15T02:18:26;3.50;99.90
17348;DHT22;8791;50.876;4.342;2024-01-15T02:20:53;3.60;99.90
17348;DHT22;8791;50.876;4.342;2024-01-15T02:23:21;3.80;99.90
17348;DHT22;8791;50.876;4.342;2024-01-15T02:25:48;3.80;99.90
17348;DHT22;8791;50.876;4.342;2024-01-15T02:28:17;3.50;99.90
17348;DHT22;8791;50.876;4.342;2024-01-15T02:30:44;3.30;99.90
17348;DHT22;8791;50.876;4.342;2024-01-15T02:33:11;3.30;99.90
17348;DHT22;8791;50.876;4.342;2024-01-15T02:35:38;3.20;99.90
17348;DHT22;8791;50.876;4.342;2024-01-15T02:38:06;3.20;99.90
17348;DHT22;8791;50.876;4.342;2024-01-15T02:40:34;3.20;99.90
17348;DHT22;8791;50.876;4.342;2024-01-15T02:43:01;3.40;99.90
17348;DHT22;8791;50.876;4.342;2024-01-15T02:45:28;3.30;99.90
17348;DHT22;8791;50.876;4.342;2024-01-15T02:47:55;3.40;99.90
17348;DHT22;8791;50.876;4.342;2024-01-15T02:50:22;3.50;99.90
17348;DHT22;8791;50.876;4.342;2024-01-15T02:52:49;3.30;99.90
17348;DHT22;8791;50.876;4.342;2024-01-15T02:55:16;3.40;99.90
17348;DHT22;8791;50.876;4.342;2024-01-15T02:57:44;3.30;99.90
17348;DHT22;8791;50.876;4.342;2024-01-15T03:00:11;3.30;99.90
17348;DHT22;8791;50.876;4.342;2024-01-15T03:02:39;3.20;99.90
17348;DHT22;8791;50.876;4.342;2024-01-15T03:05:09;3.00;99.90
17348;DHT22;8791;50.876;4.342;2024-01-15T03:07:36;3.20;99.90
17348;DHT22;8791;50.876;4.342;2024-01-15T03:10:05;3.20;99.90
17348;DHT22;8791;50.876;4.342;2024-01-15T03:12:32;3.00;99.90
17348;DHT22;8791;50.876;4.342;2024-01-15T03:15:00;3.10;99.90
17348;DHT22;8791;50.876;4.342;2024-01-15T03:17:28;3.10;99.90
17348;DHT22;8791;50.876;4.342;2024-01-15T03:19:55;3.20;99.90
17348;DHT22;8791;50.876;4.342;2024-01-15T03:22:21;3.10;99.90
17348;DHT22;8791;50.876;4.342;2024-01-15T03:24:48;3.10;99.90
17348;DHT22;8791;50.876;4.342;2024-01-15T03:27:15;3.10;99.90
17348;DHT22;8791;50.876;4.342;2024-01-15T03:29:42;3.00;99.90
17348;DHT22;8791;50.876;4.342;2024-01-15T03:32:10;3.00;99.90
17348;DHT22;8791;50.876;4.342;2024-01-15T03:34:37;3.10;99.90
17348;DHT22;8791;50.876;4.342;2024-01-15T03:37:04;3.10;99.90
17348;DHT22;8791;50.876;4.342;2024-01-15T03:39:31;3.00;99.90
17348;DHT22;8791;50.876;4.342;2024-01-15T03:41:58;2.90;99.90
17348;DHT22;8791;50.876;4.342;2024-01-15T03:44:24;3.10;99.90
17348;DHT22;8791;50.876;4.342;2024-01-15T03:46:51;3.10;99.90
17348;DHT22;8791;50.876;4.342;2024-01-15T03:49:19;2.90;99.90
17348;DHT22;8791;50.876;4.342;2024-01-15T03:51:46;2.90;99.90
17348;DHT22;8791;50.876;4.342;2024-01-15T03:54:13;2.80;99.90
17348;DHT22;8791;50.876;4.342;2024-01-15T03:56:40;2.80;99.90
17348;DHT22;8791;50.876;4.342;2024-01-15T03:59:07;2.80;99.90
17348;DHT22;8791;50.876;4.342;2024-01-15T04:01:33;2.80;99.90
17348;DHT22;8791;50.876;4.342;2024-01-15T04:04:00;2.80;99.90
17348;DHT22;8791;50.876;4.342;2024-01-15T04:06:28;2.80;99.90
17348;DHT22;8791;50.876;4.342;2024-01-15T04:08:55;2.80;99.90
17348;DHT22;8791;50.876;4.342;2024-01-15T04:11:22;2.80;99.90
17348;DHT22;8791;50.876;4.342;2024-01-15T04:13:49;2.80;99.90
17348;DHT22;8791;50.876;4.342;2024-01-15T04:16:16;2.90;99.90
17348;DHT22;8791;50.876;4.342;2024-01-15T04:18:43;2.90;99.90
17348;DHT22;8791;50.876;4.342;2024-01-15T04:21:10;3.00;99.90
17348;DHT22;8791;50.876;4.342;2024-01-15T04:23:39;2.80;99.90
17348;DHT22;8791;50.876;4.342;2024-01-15T04:26:05;2.80;99.90
17348;DHT22;8791;50.876;4.342;2024-01-15T04:28:32;2.70;99.90
17348;DHT22;8791;50.876;4.342;2024-01-15T04:30:59;2.80;99.90
17348;DHT22;8791;50.876;4.342;2024-01-15T04:33:26;2.90;99.90
17348;DHT22;8791;50.876;4.342;2024-01-15T04:35:53;2.90;99.90
17348;DHT22;8791;50.876;4.342;2024-01-15T04:38:19;3.00;99.90
17348;DHT22;8791;50.876;4.342;2024-01-15T04:40:48;3.20;99.90
17348;DHT22;8791;50.876;4.342;2024-01-15T04:43:14;3.20;99.90
17348;DHT22;8791;50.876;4.342;2024-01-15T04:45:41;3.20;99.90
17348;DHT22;8791;50.876;4.342;2024-01-15T04:48:08;3.20;99.90
17348;DHT22;8791;50.876;4.342;2024-01-15T04:50:35;3.30;99.90
17348;DHT22;8791;50.876;4.342;2024-01-15T04:53:02;3.20;99.90
17348;DHT22;8791;50.876;4.342;2024-01-15T04:55:29;3.40;99.90
17348;DHT22;8791;50.876;4.342;2024-01-15T04:57:57;3.50;99.90
17348;DHT22;8791;50.876;4.342;2024-01-15T05:00:24;3.50;99.90
17348;DHT22;8791;50.876;4.342;2024-01-15T05:02:50;3.70;99.90
17348;DHT22;8791;50.876;4.342;2024-01-15T05:05:17;3.70;99.90
17348;DHT22;8791;50.876;4.342;2024-01-15T05:07:44;3.80;99.90
17348;DHT22;8791;50.876;4.342;2024-01-15T05:10:11;3.80;99.90
17348;DHT22;8791;50.876;4.342;2024-01-15T05:12:38;3.60;99.90
17348;DHT22;8791;50.876;4.342;2024-01-15T05:15:07;3.60;99.90
17348;DHT22;8791;50.876;4.342;2024-01-15T05:17:35;3.50;99.90
17348;DHT22;8791;50.876;4.342;2024-01-15T05:20:02;3.50;99.90
17348;DHT22;8791;50.876;4.342;2024-01-15T05:22:30;3.30;99.90
17348;DHT22;8791;50.876;4.342;2024-01-15T05:24:56;3.20;99.90
17348;DHT22;8791;50.876;4.342;2024-01-15T05:27:24;3.10;99.90
17348;DHT22;8791;50.876;4.342;2024-01-15T05:29:50;3.10;99.90
17348;DHT22;8791;50.876;4.342;2024-01-15T05:32:19;3.20;99.90
17348;DHT22;8791;50.876;4.342;2024-01-15T05:34:45;3.20;99.90
17348;DHT22;8791;50.876;4.342;2024-01-15T05:37:12;3.10;99.90
17348;DHT22;8791;50.876;4.342;2024-01-15T05:39:39;2.80;99.90
17348;DHT22;8791;50.876;4.342;2024-01-15T05:42:06;2.90;99.90
17348;DHT22;8791;50.876;4.342;2024-01-15T05:44:33;2.90;99.90
17348;DHT22;8791;50.876;4.342;2024-01-15T05:46:59;3.00;99.90
17348;DHT22;8791;50.876;4.342;2024-01-15T05:49:27;3.20;99.90
17348;DHT22;8791;50.876;4.342;2024-01-15T05:51:54;3.10;99.90
17348;DHT22;8791;50.876;4.342;2024-01-15T05:54:20;3.10;99.90
17348;DHT22;8791;50.876;4.342;2024-01-15T05:56:47;3.00;99.90
17348;DHT22;8791;50.876;4.342;2024-01-15T05:59:14;3.00;99.90
17348;DHT22;8791;50.876;4.342;2024-01-15T06:01:41;3.10;99.90
17348;DHT22;8791;50.876;4.342;2024-01-15T06:04:08;3.00;99.90
17348;DHT22;8791;50.876;4.342;2024-01-15T06:06:36;2.90;99.90
17348;DHT22;8791;50.876;4.342;2024-01-15T06:09:03;2.90;99.90
17348;DHT22;8791;50.876;4.342;2024-01-15T06:11:32;3.10;99.90
17348;DHT22;8791;50.876;4.342;2024-01-15T06:13:59;3.20;99.90
17348;DHT22;8791;50.876;4.342;2024-01-15T06:16:26;3.30;99.90
17348;DHT22;8791;50.876;4.342;2024-01-15T06:18:53;3.40;99.90
17348;DHT22;8791;50.876;4.342;2024-01-15T06:21:20;3.20;99.90
17348;DHT22;8791;50.876;4.342;2024-01-15T06:23:48;3.10;99.90
17348;DHT22;8791;50.876;4.342;2024-01-15T06:26:15;3.00;99.90
17348;DHT22;8791;50.876;4.342;2024-01-15T06:28:42;2.90;99.90
17348;DHT22;8791;50.876;4.342;2024-01-15T06:31:09;2.70;99.90
17348;DHT22;8791;50.876;4.342;2024-01-15T06:33:36;2.70;99.90
17348;DHT22;8791;50.876;4.342;2024-01-15T06:36:04;2.60;99.90
17348;DHT22;8791;50.876;4.342;2024-01-15T06:38:31;2.60;99.90
17348;DHT22;8791;50.876;4.342;2024-01-15T06:40:59;2.70;99.90
17348;DHT22;8791;50.876;4.342;2024-01-15T06:43:26;2.60;99.90
17348;DHT22;8791;50.876;4.342;2024-01-15T06:45:53;2.60;99.90
17348;DHT22;8791;50.876;4.342;2024-01-15T06:48:20;2.60;99.90
17348;DHT22;8791;50.876;4.342;2024-01-15T06:50:47;2.50;99.90
17348;DHT22;8791;50.876;4.342;2024-01-15T06:53:14;2.50;99.90
17348;DHT22;8791;50.876;4.342;2024-01-15T06:55:41;2.50;99.90
17348;DHT22;8791;50.876;4.342;2024-01-15T06:58:09;2.50;99.90
17348;DHT22;8791;50.876;4.342;2024-01-15T07:00:36;2.60;99.90
17348;DHT22;8791;50.876;4.342;2024-01-15T07:03:03;2.80;99.90
17348;DHT22;8791;50.876;4.342;2024-01-15T07:05:30;2.70;99.90
17348;DHT22;8791;50.876;4.342;2024-01-15T07:07:57;2.60;99.90
17348;DHT22;8791;50.876;4.342;2024-01-15T07:10:24;2.70;99.90
17348;DHT22;8791;50.876;4.342;2024-01-15T07:12:51;2.70;99.90
17348;DHT22;8791;50.876;4.342;2024-01-15T07:15:20;2.60;99.90
17348;DHT22;8791;50.876;4.342;2024-01-15T07:17:47;2.60;99.90
17348;DHT22;8791;50.876;4.342;2024-01-15T07:20:14;2.60;99.90
17348;DHT22;8791;50.876;4.342;2024-01-15T07:22:41;2.50;99.90
17348;DHT22;8791;50.876;4.342;2024-01-15T07:25:08;2.40;99.90
17348;DHT22;8791;50.876;4.342;2024-01-15T07:27:35;2.40;99.90
17348;DHT22;8791;50.876;4.342;2024-01-15T07:30:02;2.30;99.90
17348;DHT22;8791;50.876;4.342;2024-01-15T07:32:32;2.40;99.90
17348;DHT22;8791;50.876;4.342;2024-01-15T07:34:59;2.30;99.90
17348;DHT22;8791;50.876;4.342;2024-01-15T07:37:26;2.30;99.90
17348;DHT22;8791;50.876;4.342;2024-01-15T07:39:54;2.40;99.90
17348;DHT22;8791;50.876;4.342;2024-01-15T07:42:20;2.30;99.90
17348;DHT22;8791;50.876;4.342;2024-01-15T07:44:47;2.40;99.90
17348;DHT22;8791;50.876;4.342;2024-01-15T07:47:16;2.50;99.90
17348;DHT22;8791;50.876;4.342;2024-01-15T07:49:44;2.40;99.90
17348;DHT22;8791;50.876;4.342;2024-01-15T07:52:11;2.40;99.90
17348;DHT22;8791;50.876;4.342;2024-01-15T07:54:39;2.50;99.90
17348;DHT22;8791;50.876;4.342;2024-01-15T07:57:06;2.60;99.90
17348;DHT22;8791;50.876;4.342;2024-01-15T07:59:33;2.70;99.90
17348;DHT22;8791;50.876;4.342;2024-01-15T08:02:01;2.80;99.90
17348;DHT22;8791;50.876;4.342;2024-01-15T08:04:28;2.90;99.90
17348;DHT22;8791;50.876;4.342;2024-01-15T08:06:57;2.80;99.90
17348;DHT22;8791;50.876;4.342;2024-01-15T08:09:24;3.00;99.90
17348;DHT22;8791;50.876;4.342;2024-01-15T08:11:51;3.10;99.90
17348;DHT22;8791;50.876;4.342;2024-01-15T08:14:18;3.00;99.90
17348;DHT22;8791;50.876;4.342;2024-01-15T08:16:45;3.00;99.90
17348;DHT22;8791;50.876;4.342;2024-01-15T08:19:12;3.10;99.90
17348;DHT22;8791;50.876;4.342;2024-01-15T08:21:40;3.10;99.90
17348;DHT22;8791;50.876;4.342;2024-01-15T08:24:08;2.90;99.90
17348;DHT22;8791;50.876;4.342;2024-01-15T08:26:35;2.90;99.90
17348;DHT22;8791;50.876;4.342;2024-01-15T08:29:02;2.90;99.90
17348;DHT22;8791;50.876;4.342;2024-01-15T08:31:29;2.80;99.90
17348;DHT22;8791;50.876;4.342;2024-01-15T08:33:56;2.80;99.90
17348;DHT22;8791;50.876;4.342;2024-01-15T08:36:23;2.90;99.90
17348;DHT22;8791;50.876;4.342;2024-01-15T08:38:50;3.00;99.90
17348;DHT22;8791;50.876;4.342;2024-01-15T08:41:19;3.00;99.90
17348;DHT22;8791;50.876;4.342;2024-01-15T08:43:46;3.10;99.90
17348;DHT22;8791;50.876;4.342;2024-01-15T08:46:13;3.10;99.90
17348;DHT22;8791;50.876;4.342;2024-01-15T08:48:39;3.00;99.90
17348;DHT22;8791;50.876;4.342;2024-01-15T08:51:06;3.10;99.90
17348;DHT22;8791;50.876;4.342;2024-01-15T08:53:33;3.20;99.90
17348;DHT22;8791;50.876;4.342;2024-01-15T08:56:00;3.10;99.90
17348;DHT22;8791;50.876;4.342;2024-01-15T08:58:28;3.10;99.90
17348;DHT22;8791;50.876;4.342;2024-01-15T09:00:55;3.00;99.90
17348;DHT22;8791;50.876;4.342;2024-01-15T09:03:22;2.90;99.90
17348;DHT22;8791;50.876;4.342;2024-01-15T09:05:49;2.90;99.90
17348;DHT22;8791;50.876;4.342;2024-01-15T09:08:16;3.00;99.90
17348;DHT22;8791;50.876;4.342;2024-01-15T09:10:43;3.10;99.90
17348;DHT22;8791;50.876;4.342;2024-01-15T09:13:11;3.10;99.90
17348;DHT22;8791;50.876;4.342;2024-01-15T09:15:39;3.10;99.90
17348;DHT22;8791;50.876;4.342;2024-01-15T09:18:06;3.10;99.90
17348;DHT22;8791;50.876;4.342;2024-01-15T09:20:33;3.20;99.90
17348;DHT22;8791;50.876;4.342;2024-01-15T09:23:00;3.20;99.90
17348;DHT22;8791;50.876;4.342;2024-01-15T09:25:27;3.30;99.90
17348;DHT22;8791;50.876;4.342;2024-01-15T09:27:53;3.40;99.90
17348;DHT22;8791;50.876;4.342;2024-01-15T09:30:20;3.40;99.90
17348;DHT22;8791;50.876;4.342;2024-01-15T09:32:48;3.30;99.90
17348;DHT22;8791;50.876;4.342;2024-01-15T09:35:15;3.30;99.90
17348;DHT22;8791;50.876;4.342;2024-01-15T09:37:42;3.40;99.90
17348;DHT22;8791;50.876;4.342;2024-01-15T09:40:12;3.40;99.90
17348;DHT22;8791;50.876;4.342;2024-01-15T09:42:40;3.60;99.90
17348;DHT22;8791;50.876;4.342;2024-01-15T09:45:08;3.60;99.90
17348;DHT22;8791;50.876;4.342;2024-01-15T09:47:35;3.40;99.90
17348;DHT22;8791;50.876;4.342;2024-01-15T09:50:05;3.60;99.90
17348;DHT22;8791;50.876;4.342;2024-01-15T09:52:34;3.60;99.90
17348;DHT22;8791;50.876;4.342;2024-01-15T09:55:02;3.60;99.90
17348;DHT22;8791;50.876;4.342;2024-01-15T09:57:31;3.60;99.90
17348;DHT22;8791;50.876;4.342;2024-01-15T09:59:59;3.70;99.90
17348;DHT22;8791;50.876;4.342;2024-01-15T10:02:29;3.90;99.90
17348;DHT22;8791;50.876;4.342;2024-01-15T10:04:57;3.90;99.90
17348;DHT22;8791;50.876;4.342;2024-01-15T10:07:26;4.00;99.90
17348;DHT22;8791;50.876;4.342;2024-01-15T10:09:53;4.00;99.90
17348;DHT22;8791;50.876;4.342;2024-01-15T10:12:21;4.00;99.90
17348;DHT22;8791;50.876;4.342;2024-01-15T10:14:48;4.00;99.90
17348;DHT22;8791;50.876;4.342;2024-01-15T10:17:16;3.90;99.90
17348;DHT22;8791;50.876;4.342;2024-01-15T10:19:45;3.90;99.90
17348;DHT22;8791;50.876;4.342;2024-01-15T10:22:13;3.90;99.90
17348;DHT22;8791;50.876;4.342;2024-01-15T10:24:41;4.00;99.90
17348;DHT22;8791;50.876;4.342;2024-01-15T10:27:09;4.00;99.90
17348;DHT22;8791;50.876;4.342;2024-01-15T10:29:37;4.00;99.90
17348;DHT22;8791;50.876;4.342;2024-01-15T10:32:06;4.10;99.90
17348;DHT22;8791;50.876;4.342;2024-01-15T10:34:36;4.20;99.90
17348;DHT22;8791;50.876;4.342;2024-01-15T10:37:04;4.10;99.90
17348;DHT22;8791;50.876;4.342;2024-01-15T10:39:31;4.10;99.90
17348;DHT22;8791;50.876;4.342;2024-01-15T10:41:59;4.20;99.90
17348;DHT22;8791;50.876;4.342;2024-01-15T10:44:27;4.30;99.90
17348;DHT22;8791;50.876;4.342;2024-01-15T10:46:55;4.30;99.90
17348;DHT22;8791;50.876;4.342;2024-01-15T10:49:23;4.30;99.90
17348;DHT22;8791;50.876;4.342;2024-01-15T10:51:52;4.20;99.90
17348;DHT22;8791;50.876;4.342;2024-01-15T10:54:20;4.30;99.90
17348;DHT22;8791;50.876;4.342;2024-01-15T10:56:49;4.30;99.90
17348;DHT22;8791;50.876;4.342;2024-01-15T10:59:20;4.40;99.90
17348;DHT22;8791;50.876;4.342;2024-01-15T11:01:47;4.30;99.90
17348;DHT22;8791;50.876;4.342;2024-01-15T11:04:14;4.40;99.90
17348;DHT22;8791;50.876;4.342;2024-01-15T11:06:43;4.40;99.90
17348;DHT22;8791;50.876;4.342;2024-01-15T11:09:11;4.50;99.90
17348;DHT22;8791;50.876;4.342;2024-01-15T11:11:41;4.60;99.90
17348;DHT22;8791;50.876;4.342;2024-01-15T11:14:08;4.70;99.90
17348;DHT22;8791;50.876;4.342;2024-01-15T11:16:55;4.70;99.90
17348;DHT22;8791;50.876;4.342;2024-01-15T11:19:24;4.80;99.90
17348;DHT22;8791;50.876;4.342;2024-01-15T11:21:51;4.80;99.90
17348;DHT22;8791;50.876;4.342;2024-01-15T11:24:37;4.70;99.90
17348;DHT22;8791;50.876;4.342;2024-01-15T11:27:05;4.60;99.90
17348;DHT22;8791;50.876;4.342;2024-01-15T11:29:34;4.50;99.90
17348;DHT22;8791;50.876;4.342;2024-01-15T11:32:06;4.50;99.90
17348;DHT22;8791;50.876;4.342;2024-01-15T11:34:56;4.60;99.90
17348;DHT22;8791;50.876;4.342;2024-01-15T11:37:25;4.80;99.90
17348;DHT22;8791;50.876;4.342;2024-01-15T11:39:53;4.80;99.90
17348;DHT22;8791;50.876;4.342;2024-01-15T11:42:21;4.80;99.90
17348;DHT22;8791;50.876;4.342;2024-01-15T11:44:49;4.80;99.90
17348;DHT22;8791;50.876;4.342;2024-01-15T11:47:36;4.90;99.90
17348;DHT22;8791;50.876;4.342;2024-01-15T11:50:09;4.90;99.90
17348;DHT22;8791;50.876;4.342;2024-01-15T11:52:38;4.90;99.90
17348;DHT22;8791;50.876;4.342;2024-01-15T11:55:11;4.90;99.90
17348;DHT22;8791;50.876;4.342;2024-01-15T11:57:45;4.90;99.90
17348;DHT22;8791;50.876;4.342;2024-01-15T12:00:13;4.90;99.90
17348;DHT22;8791;50.876;4.342;2024-01-15T12:02:43;4.90;99.90
17348;DHT22;8791;50.876;4.342;2024-01-15T12:05:12;4.90;99.90
17348;DHT22;8791;50.876;4.342;2024-01-15T12:07:39;4.80;99.90
17348;DHT22;8791;50.876;4.342;2024-01-15T12:10:09;4.70;99.90
17348;DHT22;8791;50.876;4.342;2024-01-15T12:12:50;4.50;99.90
17348;DHT22;8791;50.876;4.342;2024-01-15T12:15:21;4.60;99.90
17348;DHT22;8791;50.876;4.342;2024-01-15T12:17:49;4.70;99.90
17348;DHT22;8791;50.876;4.342;2024-01-15T12:20:17;4.70;99.90
17348;DHT22;8791;50.876;4.342;2024-01-15T12:22:44;4.60;99.90
17348;DHT22;8791;50.876;4.342;2024-01-15T12:25:11;4.60;99.90
17348;DHT22;8791;50.876;4.342;2024-01-15T12:27:38;4.50;99.90
17348;DHT22;8791;50.876;4.342;2024-01-15T12:30:06;4.50;99.90
17348;DHT22;8791;50.876;4.342;2024-01-15T12:32:34;4.60;99.90
17348;DHT22;8791;50.876;4.342;2024-01-15T12:35:04;4.60;99.90
17348;DHT22;8791;50.876;4.342;2024-01-15T12:37:31;4.50;99.90
17348;DHT22;8791;50.876;4.342;2024-01-15T12:39:59;4.50;99.90
17348;DHT22;8791;50.876;4.342;2024-01-15T12:42:26;4.40;99.90
17348;DHT22;8791;50.876;4.342;2024-01-15T12:44:55;4.40;99.90
17348;DHT22;8791;50.876;4.342;2024-01-15T12:47:22;4.50;99.90
17348;DHT22;8791;50.876;4.342;2024-01-15T12:49:51;4.30;99.90
17348;DHT22;8791;50.876;4.342;2024-01-15T12:52:21;4.40;99.90
17348;DHT22;8791;50.876;4.342;2024-01-15T12:54:48;4.40;99.90
17348;DHT22;8791;50.876;4.342;2024-01-15T12:57:15;4.50;99.90
17348;DHT22;8791;50.876;4.342;2024-01-15T12:59:43;4.60;99.90
17348;DHT22;8791;50.876;4.342;2024-01-15T13:02:10;4.50;99.90
17348;DHT22;8791;50.876;4.342;2024-01-15T13:04:37;4.70;99.90
17348;DHT22;8791;50.876;4.342;2024-01-15T13:07:05;4.80;99.90
17348;DHT22;8791;50.876;4.342;2024-01-15T13:09:33;4.90;99.90
17348;DHT22;8791;50.876;4.342;2024-01-15T13:12:00;4.80;99.90
17348;DHT22;8791;50.876;4.342;2024-01-15T13:14:28;4.80;99.90
17348;DHT22;8791;50.876;4.342;2024-01-15T13:16:54;4.70;99.90
17348;DHT22;8791;50.876;4.342;2024-01-15T13:19:22;4.50;99.90
17348;DHT22;8791;50.876;4.342;2024-01-15T13:21:49;4.50;99.90
17348;DHT22;8791;50.876;4.342;2024-01-15T13:24:16;4.60;99.90
17348;DHT22;8791;50.876;4.342;2024-01-15T13:26:45;4.70;99.90
17348;DHT22;8791;50.876;4.342;2024-01-15T13:29:13;4.60;99.90
17348;DHT22;8791;50.876;4.342;2024-01-15T13:31:40;4.50;99.90
17348;DHT22;8791;50.876;4.342;2024-01-15T13:34:07;4.60;99.90
17348;DHT22;8791;50.876;4.342;2024-01-15T13:36:34;4.70;99.90
17348;DHT22;8791;50.876;4.342;2024-01-15T13:39:01;4.70;99.90
17348;DHT22;8791;50.876;4.342;2024-01-15T13:41:28;4.70;99.90
17348;DHT22;8791;50.876;4.342;2024-01-15T13:43:56;4.70;99.90
17348;DHT22;8791;50.876;4.342;2024-01-15T13:46:25;4.80;99.90
17348;DHT22;8791;50.876;4.342;2024-01-15T13:48:53;4.90;99.90
17348;DHT22;8791;50.876;4.342;2024-01-15T13:51:22;5.00;99.90
17348;DHT22;8791;50.876;4.342;2024-01-15T13:53:49;4.90;99.90
17348;DHT22;8791;50.876;4.342;2024-01-15T13:56:16;4.90;99.90
17348;DHT22;8791;50.876;4.342;2024-01-15T13:58:43;4.90;99.90
17348;DHT22;8791;50.876;4.342;2024-01-15T14:01:12;4.80;99.90
17348;DHT22;8791;50.876;4.342;2024-01-15T14:03:39;4.70;99.90
17348;DHT22;8791;50.876;4.342;2024-01-15T14:06:06;4.50;99.90
17348;DHT22;8791;50.876;4.342;2024-01-15T14:08:36;4.30;99.90
17348;DHT22;8791;50.876;4.342;2024-01-15T14:11:04;3.90;99.90
17348;DHT22;8791;50.876;4.342;2024-01-15T14:13:32;3.70;99.90
17348;DHT22;8791;50.876;4.342;2024-01-15T14:15:59;3.50;99.90
17348;DHT22;8791;50.876;4.342;2024-01-15T14:18:27;3.90;99.90
17348;DHT22;8791;50.876;4.342;2024-01-15T14:20:54;4.10;99.90
17348;DHT22;8791;50.876;4.342;2024-01-15T14:23:21;4.40;99.90
17348;DHT22;8791;50.876;4.342;2024-01-15T14:25:48;4.50;99.90
17348;DHT22;8791;50.876;4.342;2024-01-15T14:28:15;4.60;99.90
17348;DHT22;8791;50.876;4.342;2024-01-15T14:30:42;4.60;99.90
17348;DHT22;8791;50.876;4.342;2024-01-15T14:33:11;4.40;99.90
17348;DHT22;8791;50.876;4.342;2024-01-15T14:35:40;4.00;99.90
17348;DHT22;8791;50.876;4.342;2024-01-15T14:38:07;3.60;99.90
17348;DHT22;8791;50.876;4.342;2024-01-15T14:40:34;3.50;99.90
17348;DHT22;8791;50.876;4.342;2024-01-15T14:43:03;3.40;99.90
17348;DHT22;8791;50.876;4.342;2024-01-15T14:45:30;3.10;99.90
17348;DHT22;8791;50.876;4.342;2024-01-15T14:47:56;2.90;99.90
17348;DHT22;8791;50.876;4.342;2024-01-15T14:50:24;2.90;99.90
17348;DHT22;8791;50.876;4.342;2024-01-15T14:52:52;2.80;99.90
17348;DHT22;8791;50.876;4.342;2024-01-15T14:55:19;2.80;99.90
17348;DHT22;8791;50.876;4.342;2024-01-15T14:57:48;2.90;99.90
17348;DHT22;8791;50.876;4.342;2024-01-15T15:00:16;2.90;99.90
17348;DHT22;8791;50.876;4.342;2024-01-15T15:02:43;3.00;99.90
17348;DHT22;8791;50.876;4.342;2024-01-15T15:05:10;3.10;99.90
17348;DHT22;8791;50.876;4.342;2024-01-15T15:07:40;3.10;99.90
17348;DHT22;8791;50.876;4.342;2024-01-15T15:10:10;3.10;99.90
17348;DHT22;8791;50.876;4.342;2024-01-15T15:12:37;3.10;99.90
17348;DHT22;8791;50.876;4.342;2024-01-15T15:15:05;3.00;99.90
17348;DHT22;8791;50.876;4.342;2024-01-15T15:17:32;3.00;99.90
17348;DHT22;8791;50.876;4.342;2024-01-15T15:20:00;3.00;99.90
17348;DHT22;8791;50.876;4.342;2024-01-15T15:22:31;2.90;99.90
17348;DHT22;8791;50.876;4.342;2024-01-15T15:24:58;3.00;99.90
17348;DHT22;8791;50.876;4.342;2024-01-15T15:27:26;3.10;99.90
17348;DHT22;8791;50.876;4.342;2024-01-15T15:29:54;3.10;99.90
17348;DHT22;8791;50.876;4.342;2024-01-15T15:32:24;3.10;99.90
17348;DHT22;8791;50.876;4.342;2024-01-15T15:34:51;3.10;99.90
17348;DHT22;8791;50.876;4.342;2024-01-15T15:37:18;3.10;99.90
17348;DHT22;8791;50.876;4.342;2024-01-15T15:39:44;3.20;99.90
17348;DHT22;8791;50.876;4.342;2024-01-15T15:42:11;3.20;99.90
17348;DHT22;8791;50.876;4.342;2024-01-15T15:44:40;3.10;99.90
17348;DHT22;8791;50.876;4.342;2024-01-15T15:47:11;3.10;99.90
17348;DHT22;8791;50.876;4.342;2024-01-15T15:49:40;3.10;99.90
17348;DHT22;8791;50.876;4.342;2024-01-15T15:52:06;3.00;99.90
17348;DHT22;8791;50.876;4.342;2024-01-15T15:54:33;3.00;99.90
17348;DHT22;8791;50.876;4.342;2024-01-15T15:57:00;3.00;99.90
17348;DHT22;8791;50.876;4.342;2024-01-15T15:59:28;3.00;99.90
17348;DHT22;8791;50.876;4.342;2024-01-15T16:01:57;3.00;99.90
17348;DHT22;8791;50.876;4.342;2024-01-15T16:04:43;3.00;99.90